createdAt,value
2022-10-11T00:02:13.839Z,3.97
2022-10-11T00:04:40.477Z,4.63
2022-10-11T00:07:07.106Z,4.68
2022-10-11T00:09:33.909Z,4.25
2022-10-11T00:12:01.261Z,6.13
2022-10-11T00:14:28.395Z,5.30
2022-10-11T00:16:55.903Z,5.70
2022-10-11T00:19:22.938Z,3.90
2022-10-11T00:21:49.838Z,4.53
2022-10-11T00:24:19.634Z,3.83
2022-10-11T00:26:49.516Z,4.78
2022-10-11T00:29:19.509Z,5.18
2022-10-11T00:31:48.246Z,4.65
2022-10-11T00:34:24.305Z,4.60
2022-10-11T00:36:51.068Z,4.18
2022-10-11T00:39:20.685Z,5.30
2022-10-11T00:41:51.638Z,4.70
2022-10-11T00:44:30.248Z,4.25
2022-10-11T00:47:15.134Z,4.50
2022-10-11T00:50:03.178Z,4.38
2022-10-11T00:52:39.727Z,4.00
2022-10-11T00:55:16.988Z,4.38
2022-10-11T00:57:52.476Z,3.88
2022-10-11T01:00:20.332Z,4.25
2022-10-11T01:02:47.919Z,4.30
2022-10-11T01:05:29.200Z,3.78
2022-10-11T01:07:59.188Z,4.05
2022-10-11T01:10:28.130Z,4.07
2022-10-11T01:13:28.134Z,3.85
2022-10-11T01:16:11.092Z,4.78
2022-10-11T01:19:16.977Z,3.97
2022-10-11T01:22:26.762Z,4.07
2022-10-11T01:25:37.633Z,3.92
2022-10-11T01:28:50.850Z,4.78
2022-10-11T01:32:00.385Z,4.35
2022-10-11T01:34:41.537Z,4.57
2022-10-11T01:37:27.178Z,4.05
2022-10-11T01:40:11.779Z,4.50
2022-10-11T01:45:17.301Z,4.95
2022-10-11T01:47:45.817Z,4.60
2022-10-11T01:50:42.739Z,4.60
2022-10-11T01:54:00.895Z,5.28
2022-10-11T01:57:07.652Z,3.60
2022-10-11T02:00:03.524Z,4.10
2022-10-11T02:03:04.675Z,4.35
2022-10-11T02:06:01.123Z,4.60
2022-10-11T02:08:45.460Z,4.32
2022-10-11T02:11:31.835Z,4.80
2022-10-11T02:14:22.863Z,4.30
2022-10-11T02:17:04.170Z,4.20
2022-10-11T02:19:42.664Z,4.30
2022-10-11T02:22:36.058Z,4.90
2022-10-11T02:25:13.061Z,5.38
2022-10-11T02:27:47.855Z,4.25
2022-10-11T02:30:17.028Z,4.72
2022-10-11T02:32:48.255Z,4.25
2022-10-11T02:35:15.515Z,4.07
2022-10-11T02:38:10.717Z,3.78
2022-10-11T02:40:46.976Z,4.40
2022-10-11T02:43:29.786Z,4.68
2022-10-11T02:46:01.509Z,4.63
2022-10-11T02:48:30.759Z,3.92
2022-10-11T02:50:58.693Z,3.75
2022-10-11T02:53:27.207Z,4.15
2022-10-11T02:55:55.998Z,3.83
2022-10-11T02:58:24.539Z,4.47
2022-10-11T03:00:51.247Z,6.25
2022-10-11T03:03:27.175Z,3.75
2022-10-11T03:06:03.559Z,5.35
2022-10-11T03:08:31.540Z,3.85
2022-10-11T03:10:58.368Z,3.92
2022-10-11T03:13:25.040Z,4.85
2022-10-11T03:16:03.181Z,4.80
2022-10-11T03:18:33.603Z,4.80
2022-10-11T03:21:00.444Z,4.80
2022-10-11T03:23:27.423Z,4.85
2022-10-11T03:25:54.154Z,3.97
2022-10-11T03:28:21.774Z,4.75
2022-10-11T03:30:52.390Z,4.00
2022-10-11T03:33:19.828Z,4.25
2022-10-11T03:35:48.872Z,4.28
2022-10-11T03:38:24.819Z,7.95
2022-10-11T03:40:51.813Z,4.78
2022-10-11T03:43:18.885Z,4.13
2022-10-11T03:45:45.804Z,4.20
2022-10-11T03:48:14.924Z,4.07
2022-10-11T03:50:42.329Z,4.63
2022-10-11T03:53:09.463Z,5.20
2022-10-11T03:55:41.709Z,4.93
2022-10-11T03:58:24.932Z,5.85
2022-10-11T04:00:54.031Z,4.85
2022-10-11T04:03:20.971Z,4.90
2022-10-11T04:05:48.083Z,6.10
2022-10-11T04:08:14.905Z,4.80
2022-10-11T04:10:41.951Z,4.40
2022-10-11T04:13:11.867Z,5.35
2022-10-11T04:15:39.796Z,6.70
2022-10-11T04:18:07.121Z,5.15
2022-10-11T04:20:34.349Z,6.13
2022-10-11T04:23:12.004Z,5.30
2022-10-11T04:25:48.523Z,5.18
2022-10-11T04:28:22.924Z,5.80
2022-10-11T04:31:18.047Z,5.15
2022-10-11T04:33:52.458Z,4.75
2022-10-11T04:39:06.549Z,4.53
2022-10-11T04:41:34.707Z,5.15
2022-10-11T04:44:02.629Z,4.93
2022-10-11T04:46:29.931Z,5.85
2022-10-11T04:49:06.958Z,6.68
2022-10-11T04:51:33.973Z,5.68
2022-10-11T05:26:58.690Z,4.90
2022-10-11T06:04:37.926Z,7.35
2022-10-11T06:07:07.791Z,5.00
2022-10-11T06:09:37.504Z,5.32
2022-10-11T06:12:09.735Z,6.05
2022-10-11T07:08:29.402Z,7.75
2022-10-11T07:11:15.220Z,6.88
2022-10-11T07:13:49.966Z,6.95
2022-10-11T07:16:25.272Z,6.55
2022-10-11T07:19:01.510Z,6.13
2022-10-11T07:21:31.374Z,4.47
2022-10-11T07:24:01.624Z,4.97
2022-10-11T07:31:53.861Z,4.70
2022-10-11T08:09:19.968Z,4.25
2022-10-11T08:11:46.745Z,4.03
2022-10-11T08:14:13.499Z,4.57
2022-10-11T08:19:21.591Z,3.88
2022-10-11T08:21:50.548Z,4.10
2022-10-11T08:24:20.713Z,4.05
2022-10-11T08:26:50.223Z,4.30
2022-10-11T08:29:16.940Z,4.05
2022-10-11T08:31:49.241Z,3.58
2022-10-11T08:34:15.963Z,3.25
2022-10-11T08:36:45.490Z,4.00
2022-10-11T08:39:12.817Z,4.65
2022-10-11T08:41:56.422Z,4.45
2022-10-11T08:45:09.400Z,4.13
2022-10-11T08:47:46.533Z,4.72
2022-10-11T08:50:23.146Z,4.10
2022-10-11T08:53:33.574Z,3.88
2022-10-11T08:56:01.287Z,4.55
2022-10-11T08:59:23.789Z,4.55
2022-10-11T09:02:12.168Z,5.13
2022-10-11T09:04:39.562Z,5.13
2022-10-11T09:08:17.359Z,8.25
2022-10-11T09:11:17.305Z,7.35
2022-10-11T09:14:29.631Z,8.65
2022-10-11T09:17:27.883Z,4.28
2022-10-11T09:20:15.403Z,4.03
2022-10-11T09:22:54.494Z,4.28
2022-10-11T09:25:49.226Z,5.00
2022-10-11T09:29:00.187Z,4.03
2022-10-11T09:31:32.633Z,4.95
2022-10-11T09:34:14.843Z,5.55
2022-10-11T09:37:05.659Z,7.25
2022-10-11T09:39:55.781Z,5.63
2022-10-11T09:42:22.753Z,7.30
2022-10-11T09:44:51.607Z,11.80
2022-10-11T09:47:31.011Z,10.60
2022-10-11T09:50:17.038Z,9.70
2022-10-11T09:52:57.532Z,5.97
2022-10-11T09:55:54.034Z,4.88
2022-10-11T09:58:34.741Z,4.57
2022-10-11T10:01:09.021Z,5.10
2022-10-11T10:03:43.504Z,4.40
2022-10-11T10:06:28.324Z,4.47
2022-10-11T10:08:55.844Z,7.65
2022-10-11T10:11:22.773Z,5.28
2022-10-11T10:13:56.283Z,5.05
2022-10-11T10:16:37.289Z,4.20
2022-10-11T10:19:25.266Z,4.00
2022-10-11T10:21:56.086Z,3.53
2022-10-11T10:24:33.919Z,3.97
2022-10-11T10:27:27.844Z,3.25
2022-10-11T10:30:09.752Z,3.40
2022-10-11T10:32:58.418Z,3.10
2022-10-11T10:35:37.474Z,2.88
2022-10-11T10:38:17.101Z,3.22
2022-10-11T10:40:56.551Z,2.92
2022-10-11T10:43:32.045Z,3.70
2022-10-11T10:46:38.793Z,3.63
2022-10-11T10:49:52.945Z,3.95
2022-10-11T10:52:53.005Z,3.55
2022-10-11T10:55:33.744Z,3.08
2022-10-11T10:58:40.953Z,3.42
2022-10-11T11:01:23.872Z,3.22
2022-10-11T11:04:26.092Z,3.70
2022-10-11T11:07:18.137Z,2.83
2022-10-11T11:10:17.301Z,3.00
2022-10-11T11:13:04.660Z,4.25
2022-10-11T11:16:13.570Z,3.38
2022-10-11T11:19:18.773Z,3.55
2022-10-11T11:22:17.100Z,3.03
2022-10-11T11:25:07.093Z,4.05
2022-10-11T11:28:07.320Z,5.32
2022-10-11T11:31:46.516Z,3.75
2022-10-11T11:34:44.326Z,4.30
2022-10-11T11:37:35.725Z,7.38
2022-10-11T11:40:19.276Z,3.95
2022-10-11T11:42:57.456Z,3.38
2022-10-11T11:45:49.764Z,3.88
2022-10-11T11:48:26.542Z,3.80
2022-10-11T11:51:26.492Z,3.67
2022-10-11T11:54:06.434Z,3.55
2022-10-11T11:56:47.765Z,3.65
2022-10-11T11:59:46.454Z,4.28
2022-10-11T12:02:37.089Z,4.47
2022-10-11T12:05:09.196Z,3.85
2022-10-11T12:08:06.494Z,2.78
2022-10-11T12:10:53.693Z,3.70
2022-10-11T12:13:35.148Z,5.40
2022-10-11T12:16:15.615Z,4.07
2022-10-11T12:19:05.042Z,2.65
2022-10-11T12:21:38.848Z,2.58
2022-10-11T12:24:20.546Z,3.42
2022-10-11T12:26:58.033Z,3.30
2022-10-11T12:29:48.233Z,2.63
2022-10-11T12:32:36.996Z,4.15
2022-10-11T12:35:39.971Z,3.60
2022-10-11T12:46:33.460Z,3.50
2022-10-11T12:49:36.169Z,2.95
2022-10-11T12:52:18.361Z,3.40
2022-10-11T12:55:34.684Z,3.50
2022-10-11T12:58:41.686Z,2.58
2022-10-11T13:01:22.370Z,3.40
2022-10-11T13:04:12.853Z,2.85
2022-10-11T13:18:05.377Z,3.90
2022-10-11T13:20:41.789Z,2.75
2022-10-11T13:23:41.260Z,3.55
2022-10-11T13:26:08.297Z,2.38
2022-10-11T13:28:36.747Z,3.60
2022-10-11T13:31:06.925Z,2.33
2022-10-11T13:33:49.146Z,2.80
2022-10-11T13:36:18.743Z,2.15
2022-10-11T13:39:01.708Z,2.83
2022-10-11T13:41:32.665Z,2.47
2022-10-11T13:44:02.558Z,3.10
2022-10-11T13:46:33.348Z,2.83
2022-10-11T13:49:38.390Z,2.00
2022-10-11T13:52:21.932Z,2.63
2022-10-11T13:55:23.749Z,3.37
2022-10-11T13:57:52.690Z,2.80
2022-10-11T14:00:38.610Z,3.47
2022-10-11T14:03:20.411Z,2.50
2022-10-11T14:06:00.363Z,3.75
2022-10-11T14:08:38.664Z,3.15
2022-10-11T14:11:08.606Z,3.70
2022-10-11T14:14:33.051Z,2.75
2022-10-11T14:17:17.479Z,2.60
2022-10-11T14:20:07.271Z,3.03
2022-10-11T14:22:37.008Z,3.45
2022-10-11T14:25:04.544Z,2.97
2022-10-11T14:27:31.697Z,3.15
2022-10-11T14:30:24.545Z,4.45
2022-10-11T14:32:54.186Z,3.33
2022-10-11T14:35:30.375Z,2.90
2022-10-11T14:37:57.641Z,3.35
2022-10-11T14:40:31.634Z,3.10
2022-10-11T14:42:58.477Z,2.65
2022-10-11T14:45:25.604Z,4.20
2022-10-11T14:47:55.552Z,3.38
2022-10-11T14:50:59.626Z,2.80
2022-10-11T14:53:27.064Z,4.00
2022-10-11T14:55:54.001Z,3.05
2022-10-11T14:58:21.856Z,3.70
2022-10-11T15:00:53.232Z,4.18
2022-10-11T15:03:25.566Z,2.83
2022-10-11T15:05:55.142Z,2.85
2022-10-11T15:08:24.884Z,3.42
2022-10-11T15:10:51.541Z,3.13
2022-10-11T15:13:22.539Z,3.50
2022-10-11T15:15:49.704Z,3.05
2022-10-11T15:18:17.686Z,2.53
2022-10-11T15:20:46.615Z,2.88
2022-10-11T15:23:19.507Z,3.22
2022-10-11T15:25:46.285Z,2.65
2022-10-11T15:28:31.324Z,2.85
2022-10-11T15:30:59.718Z,3.17
2022-10-11T15:33:29.507Z,3.25
2022-10-11T15:35:56.229Z,3.50
2022-10-11T15:38:25.892Z,3.55
2022-10-11T15:40:54.607Z,2.92
2022-10-11T15:43:24.674Z,2.72
2022-10-11T15:45:55.577Z,3.45
2022-10-11T15:48:26.352Z,3.42
2022-10-11T15:50:54.228Z,3.40
2022-10-11T15:53:31.288Z,3.25
2022-10-11T15:56:08.069Z,3.53
2022-10-11T15:58:42.213Z,3.53
2022-10-11T16:01:16.815Z,3.58
2022-10-11T16:03:45.756Z,3.33
2022-10-11T16:06:13.271Z,4.22
2022-10-11T16:08:40.375Z,2.95
2022-10-11T16:11:10.501Z,3.10
2022-10-11T16:13:37.484Z,3.13
2022-10-11T16:16:08.915Z,3.85
2022-10-11T16:18:39.302Z,3.05
2022-10-11T16:21:10.861Z,3.72
2022-10-11T16:23:40.582Z,3.28
2022-10-11T16:26:13.541Z,2.95
2022-10-11T16:28:41.959Z,3.92
2022-10-11T16:31:16.676Z,3.17
2022-10-11T16:33:46.658Z,3.22
2022-10-11T16:36:36.385Z,3.60
2022-10-11T16:39:16.847Z,3.88
2022-10-11T16:41:44.958Z,3.30
2022-10-11T16:44:20.946Z,3.80
2022-10-11T16:46:48.951Z,3.10
2022-10-11T16:49:23.207Z,3.35
2022-10-11T16:54:22.925Z,3.20
2022-10-11T16:56:50.458Z,3.40
2022-10-11T16:59:17.813Z,3.28
2022-10-11T17:01:45.844Z,4.07
2022-10-11T17:04:14.264Z,3.67
2022-10-11T17:25:48.847Z,4.03
2022-10-11T17:28:22.579Z,3.60
2022-10-11T17:42:04.988Z,3.28
2022-10-11T17:44:31.884Z,3.08
2022-10-11T17:46:59.380Z,2.83
2022-10-11T17:49:26.124Z,3.13
2022-10-11T17:54:37.487Z,3.58
2022-10-11T17:57:06.217Z,2.85
2022-10-11T18:02:16.974Z,3.63
2022-10-11T18:04:43.964Z,3.78
2022-10-11T18:39:50.829Z,3.25
2022-10-11T18:42:17.888Z,3.45
2022-10-11T18:44:44.887Z,3.20
2022-10-11T18:47:11.919Z,3.95
2022-10-11T18:49:38.975Z,3.55
2022-10-11T18:54:48.457Z,3.97
2022-10-11T20:13:05.440Z,4.40
2022-10-11T20:21:12.043Z,5.03
2022-10-11T20:26:17.540Z,4.47
2022-10-11T20:28:45.269Z,5.30
2022-10-11T20:31:15.437Z,7.57
2022-10-11T20:39:10.400Z,6.18
2022-10-11T20:52:32.600Z,6.28
2022-10-11T21:00:49.474Z,5.53
2022-10-11T21:08:42.966Z,5.40
2022-10-11T21:19:21.496Z,6.68
2022-10-11T21:21:53.342Z,5.47
2022-10-11T21:24:21.384Z,5.00
2022-10-11T21:26:48.267Z,4.70
2022-10-11T21:29:15.001Z,5.43
2022-10-11T21:31:41.667Z,5.22
2022-10-11T21:34:08.355Z,5.43
2022-10-11T21:36:35.230Z,5.00
2022-10-11T21:39:02.320Z,7.15
2022-10-11T21:41:30.014Z,5.20
2022-10-11T21:43:58.318Z,5.55
2022-10-11T21:47:01.215Z,6.05
2022-10-11T21:49:17.806Z,5.53
2022-10-11T21:51:45.123Z,6.25
2022-10-11T21:54:11.860Z,5.95
2022-10-11T21:56:38.572Z,5.88
2022-10-11T21:59:07.954Z,5.55
2022-10-11T22:01:39.069Z,5.25
2022-10-11T22:04:09.511Z,5.88
2022-10-11T22:06:38.380Z,5.82
2022-10-11T22:09:08.543Z,5.40
2022-10-11T22:11:36.938Z,5.30
2022-10-11T22:14:04.453Z,4.70
2022-10-11T22:16:34.650Z,5.28
2022-10-11T22:19:01.486Z,5.15
2022-10-11T22:21:28.377Z,5.03
2022-10-11T22:23:55.393Z,4.68
2022-10-11T22:26:30.828Z,5.05
2022-10-11T22:29:04.261Z,5.45
2022-10-11T22:31:31.506Z,5.20
2022-10-11T22:34:00.999Z,4.80
2022-10-11T22:36:33.951Z,4.35
2022-10-11T22:39:00.973Z,5.85
2022-10-11T22:41:27.761Z,5.03
2022-10-11T22:43:57.308Z,4.68
2022-10-11T22:46:24.010Z,5.18
2022-10-11T22:48:50.686Z,5.15
2022-10-11T22:51:17.613Z,4.50
2022-10-11T22:53:44.308Z,4.60
2022-10-11T22:56:11.531Z,5.28
2022-10-11T22:58:38.372Z,4.80
2022-10-11T23:01:12.615Z,4.80
2022-10-11T23:06:06.875Z,5.10
2022-10-11T23:08:33.605Z,5.82
2022-10-11T23:11:07.896Z,4.50
2022-10-11T23:16:11.806Z,4.43
2022-10-11T23:18:39.261Z,4.78
2022-10-11T23:21:08.372Z,4.72
2022-10-11T23:23:36.246Z,5.28
2022-10-11T23:26:17.035Z,4.47
2022-10-11T23:28:44.583Z,4.90
2022-10-11T23:31:18.415Z,5.03
2022-10-11T23:33:47.641Z,3.50
2022-10-11T23:36:24.528Z,5.03
2022-10-11T23:38:56.311Z,3.85
2022-10-11T23:41:27.552Z,4.28
2022-10-11T23:43:54.691Z,4.35
2022-10-11T23:46:21.698Z,4.75
2022-10-11T23:48:48.753Z,4.28
2022-10-11T23:51:16.238Z,3.78
2022-10-11T23:53:43.161Z,4.45
2022-10-11T23:56:11.979Z,4.47
2022-10-11T23:58:39.300Z,3.78
